Huvudsida
METAR-TAF:

METAR-TAF

Flygplatser :

Tunis, Tunisien

latitud: 36-50N, longitud: 010-14E, höjd: 3 m

Aktuellt väderrapport

Denna rapport gjordes för 34 minuter sedan, klockan 07:30 UTC
Vind 16 kt från nordväst
Temperatur 18°C
Fuktighet 77%
Tryck 1015 hPa
Sikt: 8000 m
Brutna moln på en höjd av 2000 ft, Högtornande cumulus.
Få moln på en höjd av 3000 ft, Cumulonimbus.

METAR: DTTA 230730Z 31016KT 8000 BKN020TCU FEW030CB 18/14 Q1015 NOSIG

Tid: 09:04 (08:04 UTC)

Väderprognos

Denna rapport gjordes för 2 timmar och 24 minuter sedan, klockan 05:40 UTC
Prognos gäller från 23 kl. 06 UTC till 24 kl. 06 UTC
Vind 15 kt från nordväst
Sikt: 8000 m
Spridda moln på en höjd av 2000 ft, Högtornande cumulus.
Temporärt
från 23 kl. 09 UTC till 23 kl. 15 UTC
Vind 35 kt från nord/nordväst i byarna ända upp till 45 kt
Sikt: 3000 m
Spridda moln på en höjd av 2600 ft, Cumulonimbus.
vindby, åska, regn

TAF: DTTA 230540Z 2306/2406 31015KT 8000 SCT020TCU TEMPO 2309/2315 33035G45KT 3000 SQ TSRA SCT026CB

Aktuella väderrapporter och prognoser från 4000 flygplatser (METAR- och TAF-rapporter).

De tillgängliga stationerna syns som gula och röda prickar på kartan.

För musen över prickarna för att se namnen på stationerna.

Klicka sedan för att få väderrapporter och prognoser.

För att ändra kartan: Klicka på de gröna knapparna med ett svart kors på för att zooma in; den gröna knappen med ett streck på för att zooma ut; eller på de gröna pilarna för angränsande kartor.


METAR-TAF: